»·PEaware :: N8778W KPOC-KPSP

N8778W :: KPOC-KPSP

FLIGHT INFORMATION

Flight Status: Arrived
Operator: Privately registered:
United States
More flights under this callsign
Pilot: Dez L. (21124)
Aircraft: CESSNA 152 AEROBAT
(C152)
More flights by this aircraft type
Origin: KPOC Brackett
United States
Destination: KPSP Palm Springs Intl
United States
More flights between these airports :: More routes between these airports
Route: PDZ RAL KBNG
File this flight plan on PilotEdge
Remarks:
Altitude:
(Current/Filed)
7,500ft
Speed:
(Current/Filed)
100kts
Departed: 04-Jan-21 02:34 PM
Arrived: 04-Jan-21 03:23 PM
Distance/Time
Traveled:
66nm/0:49
Distance/Time
To Go:
Arrived

Flight Plot

Page will automatically refresh every two minutes.

Flight plan parsing failed; only flown route is shown


Map Options




Map Legend


Flown Route
Filed Route
Departure Airport
Arrival Airport
Navaid (VOR, NDB)
Fix

Horizontal Profiles

Position Reports

Time Latitude Longitude Heading Altitude Ground
Speed
04-Jan-21 14:17 34.089602 -117.777789 180 1002ft 0kts
04-Jan-21 14:18 34.089602 -117.777789 180 1002ft 0kts
04-Jan-21 14:20 34.089602 -117.777789 180 1002ft 0kts
04-Jan-21 14:21 34.089602 -117.777789 180 1002ft 0kts
04-Jan-21 14:22 34.089602 -117.777789 180 1002ft 0kts
04-Jan-21 14:23 34.089602 -117.777789 180 1002ft 0kts
04-Jan-21 14:24 34.089602 -117.777789 180 1002ft 0kts
04-Jan-21 14:25 34.089602 -117.777789 180 1002ft 0kts
04-Jan-21 14:26 34.089602 -117.777789 180 1002ft 0kts
04-Jan-21 14:27 34.089602 -117.777789 180 1002ft 0kts
04-Jan-21 14:28 34.089602 -117.777789 180 1002ft 0kts
04-Jan-21 14:29 34.089602 -117.777789 180 1002ft 0kts
04-Jan-21 14:30 34.089480 -117.776910 11 1003ft 0kts
04-Jan-21 14:31 34.090374 -117.776086 92 1007ft 8kts
04-Jan-21 14:32 34.090534 -117.774670 4 1012ft 0kts
04-Jan-21 14:33 34.090937 -117.774674 332 1013ft 8kts
04-Jan-21 14:33 34.091577 -117.788367 272 1334ft 71kts
04-Jan-21 14:35 34.085390 -117.810242 172 2369ft 78kts
04-Jan-21 14:36 34.077349 -117.788783 84 3280ft 72kts
04-Jan-21 14:37 34.067169 -117.770047 144 4063ft 77kts
04-Jan-21 14:37 34.052166 -117.758796 136 4726ft 77kts
04-Jan-21 14:38 34.035127 -117.742270 137 5462ft 79kts
04-Jan-21 14:39 34.021651 -117.722008 131 6178ft 78kts
04-Jan-21 14:40 34.008596 -117.701116 127 6851ft 79kts
04-Jan-21 14:41 33.996852 -117.677480 117 7379ft 85kts
04-Jan-21 14:42 33.984788 -117.650544 121 7548ft 97kts
04-Jan-21 14:43 33.969610 -117.621857 121 7623ft 103kts
04-Jan-21 14:44 33.952588 -117.593523 131 7714ft 105kts
04-Jan-21 14:45 33.932401 -117.567610 131 7761ft 107kts
04-Jan-21 14:46 33.921425 -117.535573 68 7628ft 107kts
04-Jan-21 14:47 33.930492 -117.501530 69 7619ft 105kts
04-Jan-21 14:48 33.938897 -117.467158 64 7537ft 106kts
04-Jan-21 14:49 33.943480 -117.432097 86 7464ft 109kts
04-Jan-21 14:50 33.946153 -117.396248 73 7435ft 106kts
04-Jan-21 14:51 33.950404 -117.360851 82 7426ft 105kts
04-Jan-21 14:52 33.954330 -117.325786 86 7403ft 107kts
04-Jan-21 14:53 33.952275 -117.289869 92 7422ft 106kts
04-Jan-21 14:54 33.949489 -117.255776 96 7444ft 106kts
04-Jan-21 14:55 33.946880 -117.220365 93 7473ft 106kts
04-Jan-21 14:56 33.943711 -117.185039 94 7494ft 106kts
04-Jan-21 14:57 33.940651 -117.149807 90 7516ft 106kts
04-Jan-21 14:58 33.940506 -117.114295 87 7535ft 106kts
04-Jan-21 14:59 33.939131 -117.078590 96 7573ft 107kts
04-Jan-21 15:00 33.937657 -117.042626 87 7591ft 107kts
04-Jan-21 15:01 33.938648 -117.006628 89 7628ft 107kts
04-Jan-21 15:02 33.939323 -116.970677 87 7643ft 107kts
04-Jan-21 15:03 33.939563 -116.934636 89 7633ft 108kts
04-Jan-21 15:04 33.938355 -116.898589 85 7646ft 106kts
04-Jan-21 15:05 33.941251 -116.863189 80 7358ft 105kts
04-Jan-21 15:06 33.942881 -116.828113 83 6945ft 105kts
04-Jan-21 15:07 33.946146 -116.793403 82 6345ft 104kts
04-Jan-21 15:08 33.949057 -116.759115 94 5757ft 104kts
04-Jan-21 15:09 33.943977 -116.725156 106 5236ft 101kts
04-Jan-21 15:10 33.936962 -116.692033 105 4686ft 102kts
04-Jan-21 15:11 33.926235 -116.661462 117 4111ft 96kts
04-Jan-21 15:12 33.914907 -116.633587 117 3520ft 88kts
04-Jan-21 15:13 33.900281 -116.609840 127 2721ft 88kts
04-Jan-21 15:14 33.886846 -116.586754 112 2000ft 87kts
04-Jan-21 15:15 33.879008 -116.559078 103 1619ft 87kts
04-Jan-21 15:16 33.874475 -116.530991 106 1574ft 80kts
04-Jan-21 15:17 33.860073 -116.510562 142 1414ft 82kts
04-Jan-21 15:18 33.842608 -116.493325 142 1249ft 81kts
04-Jan-21 15:19 33.825459 -116.478289 134 1153ft 71kts
04-Jan-21 15:20 33.809477 -116.472559 221 913ft 69kts
04-Jan-21 15:21 33.813562 -116.490696 329 565ft 71kts
04-Jan-21 15:22 33.827160 -116.502646 326 418ft 35kts
04-Jan-21 15:23 33.830021 -116.504405 59 431ft 0kts
04-Jan-21 15:24 33.830023 -116.504400 59 431ft 1kts
04-Jan-21 15:25 33.827605 -116.501936 143 418ft 19kts
04-Jan-21 15:26 33.824536 -116.498990 143 406ft 13kts
04-Jan-21 15:27 33.823677 -116.497853 48 403ft 0kts
04-Jan-21 15:28 33.823677 -116.497853 48 403ft 0kts
04-Jan-21 15:29 33.823677 -116.497853 48 403ft 0kts

Navigation Log

Ident Type
Flight plan parsing failed, navigation log unavailable